Time;durP1;ratioP1;P1;durP2;ratioP2;P2;SDS_P1;SDS_P2;PMS_P1;PMS_P2;Temp;Humidity;BMP_temperature;BMP_pressure;BME280_temperature;BME280_humidity;BME280_pressure;Samples;Min_cycle;Max_cycle;Signal;HPM_P1;HPM_P2
2022/05/15 00:01:37;;;;;;;12.80;2.70;;;;;;;9.24;78.29;101472.63;106622;1272;60793;-83
2022/05/15 00:04:07;;;;;;;7.60;2.60;;;;;;;9.20;78.39;101477.62;106508;1273;74177;-83
2022/05/15 00:06:35;;;;;;;20.10;3.20;;;;;;;9.15;78.22;101472.40;106575;1273;71652;-84
2022/05/15 00:09:07;;;;;;;10.00;3.40;;;;;;;9.10;78.45;101474.11;106330;1273;71969;-85
2022/05/15 00:11:37;;;;;;;4.80;2.30;;;;;;;9.07;78.52;101477.81;106600;1273;63403;-86
2022/05/15 00:14:15;;;;;;;7.10;2.60;;;;;;;9.02;78.77;101477.41;106428;1274;60593;-84
2022/05/15 00:16:49;;;;;;;7.50;2.80;;;;;;;8.97;79.23;101476.58;108100;1273;75682;-85
2022/05/15 00:19:35;;;;;;;;;;;;;;;;;;;;;
2022/05/15 00:22:11;;;;;;;4.70;2.40;;;;;;;8.88;79.72;101475.82;106520;1276;75388;-85
2022/05/15 00:24:38;;;;;;;7.20;2.50;;;;;;;8.86;79.76;101471.86;106525;1277;62925;-85
2022/05/15 00:27:16;;;;;;;7.40;2.70;;;;;;;8.81;79.62;101473.86;106615;1273;60468;-85
2022/05/15 00:29:43;;;;;;;8.70;2.60;;;;;;;8.77;79.66;101469.50;106686;1274;74999;-85
2022/05/15 00:32:16;;;;;;;8.80;2.70;;;;;;;8.73;79.97;101467.34;106669;1273;73706;-86
2022/05/15 00:34:51;;;;;;;7.00;2.50;;;;;;;8.70;80.43;101468.52;106669;1273;73399;-85
2022/05/15 00:37:49;;;;;;;6.90;2.60;;;;;;;8.67;80.46;101468.53;106827;1273;61430;-85
2022/05/15 00:40:50;;;;;;;4.90;2.20;;;;;;;8.62;80.58;101465.58;106739;1273;60568;-86
2022/05/15 00:44:02;;;;;;;6.50;2.60;;;;;;;8.56;80.90;101464.02;106843;1273;75507;-85
2022/05/15 00:46:49;;;;;;;13.40;2.60;;;;;;;8.53;81.06;101465.90;106856;1273;72380;-87
2022/05/15 00:49:36;;;;;;;;;;;;;;;;;;;;;
2022/05/15 00:52:40;;;;;;;5.10;2.70;;;;;;;8.47;81.69;101464.02;106869;1273;61290;-88
2022/05/15 00:56:33;;;;;;;7.70;2.70;;;;;;;8.43;82.18;101462.24;106633;1275;60455;-87
2022/05/15 01:00:00;;;;;;;9.10;3.30;;;;;;;8.38;82.05;101468.84;106818;1273;75406;-87
2022/05/15 01:03:10;;;;;;;5.70;2.40;;;;;;;8.33;82.18;101469.61;106551;1274;72613;-87
2022/05/15 01:05:52;;;;;;;9.10;2.90;;;;;;;8.27;82.31;101472.16;106803;1273;73033;-86
2022/05/15 01:08:53;;;;;;;7.30;2.70;;;;;;;8.25;82.46;101472.39;106837;1273;60961;-85
2022/05/15 01:11:28;;;;;;;8.80;3.00;;;;;;;8.21;82.72;101471.80;108192;1274;60876;-85
2022/05/15 01:14:23;;;;;;;;;;;;;;;;;;;;;
2022/05/15 01:17:05;;;;;;;8.80;2.50;;;;;;;8.12;82.97;101467.81;107299;1274;71436;-88
2022/05/15 01:19:52;;;;;;;;;;;;;;;;;;;;;
2022/05/15 01:22:32;;;;;;;5.20;2.50;;;;;;;8.03;83.22;101467.09;106703;1276;62356;-84
2022/05/15 01:25:03;;;;;;;9.40;3.20;;;;;;;8.00;83.76;101470.91;106944;1273;60963;-85
2022/05/15 01:27:55;;;;;;;9.30;3.70;;;;;;;7.96;83.60;101467.70;106737;1274;75636;-86
2022/05/15 01:30:33;;;;;;;9.20;2.60;;;;;;;7.92;83.47;101465.95;106655;1276;71405;-85
2022/05/15 01:33:03;;;;;;;6.40;2.60;;;;;;;7.89;83.38;101467.30;107235;1274;74170;-84
2022/05/15 01:35:33;;;;;;;10.60;3.30;;;;;;;7.85;83.69;101465.19;106595;1274;62744;-85
2022/05/15 01:38:05;;;;;;;8.30;2.80;;;;;;;7.81;83.76;101464.20;106783;1274;61353;-84
2022/05/15 01:40:33;;;;;;;5.70;2.50;;;;;;;7.78;83.83;101467.41;106534;1276;74122;-86
2022/05/15 01:43:04;;;;;;;9.60;3.50;;;;;;;7.74;83.96;101463.64;106732;1275;71295;-85
2022/05/15 01:45:32;;;;;;;8.60;2.70;;;;;;;7.71;84.11;101467.29;106639;1274;73761;-85
2022/05/15 01:47:59;;;;;;;5.80;2.20;;;;;;;7.68;84.09;101468.12;106720;1276;61658;-84
2022/05/15 01:50:31;;;;;;;9.10;2.90;;;;;;;7.62;84.91;101462.89;106740;1274;60518;-84
2022/05/15 01:53:09;;;;;;;;;;;;;;;;;;;;;
2022/05/15 01:55:46;;;;;;;6.00;3.00;;;;;;;7.57;84.83;101469.59;106827;1274;71743;-84
2022/05/15 01:58:13;;;;;;;7.80;3.80;;;;;;;7.53;84.90;101471.17;106789;1275;74152;-84
2022/05/15 02:00:40;;;;;;;10.30;3.90;;;;;;;7.49;84.91;101470.14;106886;1272;62779;-84
2022/05/15 02:03:19;;;;;;;7.80;2.40;;;;;;;7.45;84.82;101472.41;106682;1276;61844;-88
2022/05/15 02:05:48;;;;;;;5.60;2.40;;;;;;;7.43;85.11;101475.86;106550;1278;74302;-87
2022/05/15 02:08:21;;;;;;;8.00;2.70;;;;;;;7.39;85.03;101469.34;106703;1274;72095;-85
2022/05/15 02:11:47;;;;;;;7.70;2.80;;;;;;;7.35;85.09;101466.26;107491;1273;72952;-86
2022/05/15 02:14:44;;;;;;;7.60;2.80;;;;;;;7.31;85.10;101463.27;106889;1274;62776;-83
2022/05/15 02:17:29;;;;;;;5.70;2.40;;;;;;;7.29;85.33;101461.20;106907;1274;60382;-83
2022/05/15 02:20:01;;;;;;;7.20;2.90;;;;;;;7.26;85.70;101457.94;106724;1276;75413;-84
2022/05/15 02:22:36;;;;;;;8.30;2.50;;;;;;;7.24;85.54;101463.39;106419;1276;71359;-85
2022/05/15 02:25:11;;;;;;;7.20;2.60;;;;;;;7.22;85.57;101465.52;106746;1274;73273;-85
2022/05/15 02:27:46;;;;;;;5.50;2.00;;;;;;;7.20;85.67;101469.05;106641;1276;61518;-84
2022/05/15 02:30:36;;;;;;;7.70;2.70;;;;;;;7.16;85.77;101463.19;106829;1274;60353;-84
2022/05/15 02:33:22;;;;;;;11.60;3.20;;;;;;;7.12;85.56;101463.55;106888;1274;72821;-83
2022/05/15 02:35:59;;;;;;;8.40;2.80;;;;;;;7.08;85.62;101462.71;106704;1275;72989;-84
2022/05/15 02:38:58;;;;;;;5.30;2.60;;;;;;;7.04;85.94;101464.40;106706;1274;73090;-84
2022/05/15 02:42:05;;;;;;;5.60;2.70;;;;;;;7.01;86.31;101468.21;106690;1274;61281;-85
2022/05/15 02:45:08;;;;;;;5.30;2.30;;;;;;;6.97;86.09;101465.59;106868;1274;60588;-86
2022/05/15 02:47:47;;;;;;;9.50;3.40;;;;;;;6.93;86.04;101471.17;106592;1276;73799;-85
2022/05/15 02:53:17;;;;;;;8.00;2.70;;;;;;;6.85;86.39;101477.80;106812;1274;72970;-83
2022/05/15 02:55:59;;;;;;;8.10;3.10;;;;;;;6.81;86.64;101474.48;106737;1274;61551;-88
2022/05/15 02:58:56;;;;;;;8.50;3.10;;;;;;;6.76;87.00;101476.66;106763;1274;61699;-84
2022/05/15 03:01:36;;;;;;;5.00;3.00;;;;;;;6.71;87.27;101474.08;106811;1275;75250;-84
2022/05/15 03:04:30;;;;;;;8.60;3.20;;;;;;;6.68;87.45;101473.13;106824;1274;71374;-84
2022/05/15 03:07:00;;;;;;;4.50;2.40;;;;;;;6.64;87.60;101472.45;106851;1275;74629;-85
2022/05/15 03:09:53;;;;;;;;;;;;;;;;;;;;;
2022/05/15 03:13:01;;;;;;;4.10;2.20;;;;;;;6.60;88.35;101474.91;106536;1274;59820;-84
2022/05/15 03:15:37;;;;;;;8.00;3.30;;;;;;;6.58;88.72;101474.54;106693;1276;76171;-85
2022/05/15 03:18:29;;;;;;;5.80;3.40;;;;;;;6.57;88.94;101473.52;106606;1276;72472;-85
2022/05/15 03:21:45;;;;;;;8.30;2.40;;;;;;;6.56;88.90;101470.09;106630;1275;73127;-84
2022/05/15 03:24:39;;;;;;;6.80;2.30;;;;;;;6.55;89.01;101471.41;106634;1274;62581;-84
2022/05/15 03:27:22;;;;;;;5.50;2.60;;;;;;;6.53;89.06;101474.05;106753;1274;61484;-85
2022/05/15 03:30:18;;;;;;;6.60;2.90;;;;;;;6.51;88.91;101473.31;106538;1274;75392;-85
2022/05/15 03:33:27;;;;;;;;;;;;;;;;;;;;;
2022/05/15 03:36:05;;;;;;;9.50;2.80;;;;;;;6.46;89.34;101472.32;106839;1274;72967;-86
2022/05/15 03:39:15;;;;;;;6.50;3.00;;;;;;;6.46;89.33;101470.42;106839;1274;60485;-86
2022/05/15 03:41:58;;;;;;;9.10;3.00;;;;;;;6.45;89.41;101473.14;106735;1275;60606;-84
2022/05/15 03:44:37;;;;;;;5.50;2.60;;;;;;;6.45;89.81;101474.13;106581;1275;74903;-85
2022/05/15 03:47:17;;;;;;;5.80;2.10;;;;;;;6.47;89.74;101479.80;106773;1275;72460;-84
2022/05/15 03:53:59;;;;;;;5.80;3.00;;;;;;;6.51;89.67;101488.63;106885;1274;60763;-84
2022/05/15 03:59:31;;;;;;;17.40;3.30;;;;;;;6.56;89.82;101490.66;106746;1274;75721;-86
2022/05/15 04:02:15;;;;;;;5.90;2.40;;;;;;;6.59;89.83;101489.14;106668;1274;72533;-85
2022/05/15 04:05:06;;;;;;;8.50;2.80;;;;;;;6.62;89.66;101488.92;106808;1274;72894;-83
2022/05/15 04:08:33;;;;;;;6.40;2.30;;;;;;;6.66;89.66;101497.37;106751;1275;61478;-84
2022/05/15 04:11:41;;;;;;;7.30;2.70;;;;;;;6.69;89.81;101494.44;106809;1274;60821;-83
2022/05/15 04:15:10;;;;;;;7.20;3.00;;;;;;;6.75;90.07;101499.58;106868;1274;73982;-86
2022/05/15 04:18:43;;;;;;;8.30;2.80;;;;;;;6.83;90.44;101505.79;106629;1276;72582;-84
2022/05/15 04:21:37;;;;;;;;;;;;;;;;;;;;;
2022/05/15 04:25:05;;;;;;;7.00;3.00;;;;;;;7.00;90.08;101509.78;106863;1274;61725;-84
2022/05/15 04:28:35;;;;;;;7.00;3.10;;;;;;;7.10;89.58;101507.85;106580;1275;61633;-84
2022/05/15 04:31:55;;;;;;;;;;;;;;;;;;;;;
2022/05/15 04:34:52;;;;;;;7.50;3.80;;;;;;;7.33;89.55;101505.49;107037;1274;73448;-84
2022/05/15 04:37:41;;;;;;;;;;;;;;;7.45;89.39;101506.60;107130;1274;74667;-84
2022/05/15 04:40:59;;;;;;;7.70;3.50;;;;;;;7.55;89.24;101506.95;106921;1274;60561;-84
2022/05/15 04:44:06;;;;;;;7.30;2.90;;;;;;;7.67;89.46;101506.26;106948;1274;60749;-84
2022/05/15 04:47:06;;;;;;;5.60;2.80;;;;;;;7.80;89.58;101508.09;108225;1274;73437;-87
2022/05/15 04:49:51;;;;;;;;;;;;;;;;;;;;;
2022/05/15 04:52:33;;;;;;;;;;;;;;;;;;;;;
2022/05/15 04:55:23;;;;;;;10.30;4.00;;;;;;;8.21;89.09;101511.25;106787;1274;60793;-84
2022/05/15 04:58:21;;;;;;;;;;;;;;;;;;;;;
2022/05/15 05:01:31;;;;;;;;;;;;;;;;;;;;;
2022/05/15 05:04:36;;;;;;;8.10;3.90;;;;;;;8.65;88.42;101522.13;106853;1274;70846;-83
2022/05/15 05:07:55;;;;;;;9.40;4.00;;;;;;;8.77;88.28;101528.56;106795;1274;73146;-88
2022/05/15 05:10:31;;;;;;;8.60;4.10;;;;;;;8.90;88.25;101529.13;106607;1274;62973;-84
2022/05/15 05:13:14;;;;;;;6.40;3.80;;;;;;;9.01;88.04;101527.76;106770;1274;60447;-84
2022/05/15 05:16:30;;;;;;;7.50;4.00;;;;;;;9.13;87.84;101529.58;106864;1274;75691;-84
2022/05/15 05:19:57;;;;;;;7.70;3.70;;;;;;;9.26;87.12;101528.05;106880;1274;71627;-84
2022/05/15 05:22:56;;;;;;;7.00;3.90;;;;;;;9.39;86.87;101533.71;106832;1274;74157;-84
2022/05/15 05:26:04;;;;;;;;;;;;;;;;;;;;;
2022/05/15 05:28:36;;;;;;;6.90;3.90;;;;;;;9.70;86.27;101526.48;106833;1274;61097;-87
2022/05/15 05:31:30;;;;;;;6.10;3.70;;;;;;;9.83;85.64;101528.35;107171;1274;76004;-85
2022/05/15 05:34:27;;;;;;;7.40;3.60;;;;;;;9.98;85.17;101527.42;107965;1274;71166;-84
2022/05/15 05:37:03;;;;;;;10.20;3.20;;;;;;;10.13;84.71;101530.19;108243;1274;72932;-86
2022/05/15 05:39:33;;;;;;;7.40;3.90;;;;;;;10.23;83.86;101523.95;108081;1275;62048;-84
2022/05/15 05:42:11;;;;;;;5.60;3.80;;;;;;;10.34;83.77;101527.84;107874;1274;60714;-85
2022/05/15 05:44:37;;;;;;;5.70;3.70;;;;;;;10.47;83.66;101526.20;107536;1274;74743;-85
2022/05/15 05:47:29;;;;;;;5.40;3.20;;;;;;;10.61;83.61;101527.80;106776;1274;70782;-83
2022/05/15 05:50:16;;;;;;;;;;;;;;;;;;;;;
2022/05/15 05:52:59;;;;;;;6.40;3.10;;;;;;;10.95;83.17;101525.73;106775;1274;62249;-86
2022/05/15 05:55:37;;;;;;;12.40;3.80;;;;;;;11.14;82.61;101521.71;106781;1275;61648;-85
2022/05/15 05:58:30;;;;;;;11.10;3.40;;;;;;;11.29;82.10;101526.10;106545;1274;74079;-86
2022/05/15 06:01:40;;;;;;;8.20;3.50;;;;;;;11.47;81.35;101526.81;106733;1274;72669;-85
2022/05/15 06:07:58;;;;;;;6.60;3.00;;;;;;;11.72;79.40;101527.33;107129;1274;62564;-85
2022/05/15 06:10:43;;;;;;;9.00;3.80;;;;;;;11.88;79.03;101530.30;108183;1274;61425;-84
2022/05/15 06:13:21;;;;;;;10.80;2.90;;;;;;;11.99;78.33;101532.80;107912;1274;76449;-86
2022/05/15 06:16:11;;;;;;;;;;;;;;;;;;;;;
2022/05/15 06:18:45;;;;;;;9.90;3.50;;;;;;;12.18;76.91;101536.65;106663;1275;73419;-87
2022/05/15 06:21:16;;;;;;;11.30;3.60;;;;;;;12.28;76.45;101534.73;106653;1278;62280;-85
2022/05/15 06:23:53;;;;;;;12.10;3.60;;;;;;;12.42;76.67;101532.50;106516;1277;61364;-85
2022/05/15 06:26:26;;;;;;;6.80;3.10;;;;;;;12.55;75.93;101528.41;106609;1275;75432;-87
2022/05/15 06:28:53;;;;;;;9.30;2.30;;;;;;;12.70;75.82;101534.38;106711;1274;71549;-86
2022/05/15 06:31:22;;;;;;;7.50;3.20;;;;;;;12.82;74.68;101532.73;106857;1274;73283;-86
2022/05/15 06:33:55;;;;;;;10.00;3.30;;;;;;;12.92;74.19;101530.92;107030;1265;64124;-87
2022/05/15 06:36:22;;;;;;;12.10;4.00;;;;;;;13.05;74.24;101533.02;107087;1269;62737;-85
2022/05/15 06:38:49;;;;;;;;;;;;;;;13.18;74.00;101525.77;106871;1274;75078;-85
2022/05/15 06:41:18;;;;;;;;;;;;;;;13.36;72.98;101529.02;106936;1271;69233;-86
2022/05/15 06:43:44;;;;;;;;;;;;;;;13.51;72.30;101527.92;106914;1271;59905;-85
2022/05/15 06:46:18;;;;;;;;;;;;;;;13.60;71.48;101525.48;107036;1271;60469;-86
2022/05/15 06:48:45;;;;;;;;;;;;;;;13.70;70.60;101529.66;107049;1271;60125;-85
2022/05/15 06:51:16;;;;;;;;;;;;;;;13.79;70.90;101527.38;107142;1271;60977;-86
2022/05/15 06:53:49;;;;;;;;;;;;;;;13.89;70.83;101525.02;107160;1271;70387;-86
2022/05/15 06:59:09;;;;;;;;;;;;;;;14.11;69.24;101522.96;107403;1271;61937;-87
2022/05/15 07:01:39;;;;;;;;;;;;;;;14.22;68.87;101518.92;107317;1271;60539;-85
2022/05/15 07:04:07;;;;;;;;;;;;;;;14.35;68.78;101519.31;108143;1271;73947;-87
2022/05/15 07:06:37;;;;;;;;;;;;;;;14.50;67.83;101521.20;108379;1271;70794;-85
2022/05/15 07:09:03;;;;;;;;;;;;;;;14.63;67.12;101521.77;108276;1271;72976;-85
2022/05/15 07:11:29;;;;;;;;;;;;;;;14.76;67.26;101522.54;108242;1273;59175;-86
2022/05/15 07:13:56;;;;;;;;;;;;;;;14.90;67.24;101525.34;108222;1271;59185;-84
2022/05/15 07:16:23;;;;;;;;;;;;;;;15.02;65.71;101523.50;107633;1271;75426;-86
2022/05/15 07:18:52;;;;;;;;;;;;;;;15.12;65.29;101520.59;107014;1271;72606;-88
2022/05/15 07:21:19;;;;;;;;;;;;;;;15.20;64.43;101519.42;107005;1271;71909;-86
2022/05/15 07:23:48;;;;;;;;;;;;;;;15.23;63.47;101515.23;107162;1271;63133;-87
2022/05/15 07:26:15;;;;;;;;;;;;;;;15.23;63.88;101515.23;107123;1272;60596;-87
2022/05/15 07:28:41;;;;;;;;;;;;;;;15.31;64.61;101517.39;106938;1274;74271;-87
2022/05/15 07:31:08;;;;;;;;;;;;;;;15.42;63.88;101519.42;106971;1271;71403;-86
2022/05/15 07:33:41;;;;;;;;;;;;;;;15.53;62.58;101524.24;107010;1274;73762;-86
2022/05/15 07:36:16;;;;;;;;;;;;;;;15.63;62.36;101523.13;107047;1274;60472;-87
2022/05/15 07:38:43;;;;;;;;;;;;;;;15.78;61.55;101523.95;107089;1271;60380;-88
2022/05/15 07:41:13;;;;;;;;;;;;;;;15.89;60.51;101522.46;106860;1273;74349;-88
2022/05/15 07:43:49;;;;;;;;;;;;;;;16.00;60.60;101523.67;107115;1273;73695;-89
2022/05/15 07:46:19;;;;;;;;;;;;;;;16.13;60.31;101524.35;107157;1273;73236;-86
2022/05/15 07:48:54;;;;;;;;;;;;;;;16.29;60.25;101521.40;107223;1271;60643;-89
2022/05/15 07:51:23;;;;;;;;;;;;;;;16.43;58.72;101522.16;107113;1271;62361;-89
2022/05/15 07:53:57;;;;;;;;;;;;;;;16.55;58.43;101521.05;107372;1271;75318;-89
2022/05/15 07:59:01;;;;;;;7.80;2.50;;;;;;;16.75;56.60;101522.64;107579;1262;166819;-86
2022/05/15 08:01:30;;;;;;;4.80;2.30;;;;;;;16.78;56.96;101520.39;107058;1274;60575;-84
2022/05/15 08:04:02;;;;;;;3.40;1.50;;;;;;;16.89;57.50;101518.48;106757;1271;62050;-85
2022/05/15 08:09:22;;;;;;;9.10;2.90;;;;;;;17.07;56.06;101510.50;106548;1274;72595;-85
2022/05/15 08:14:29;;;;;;;8.40;2.20;;;;;;;17.15;55.82;101514.08;106289;1264;60517;-84
2022/05/15 08:17:10;;;;;;;6.70;2.50;;;;;;;17.33;56.47;101516.11;106407;1274;61045;-85
2022/05/15 08:25:17;;;;;;;4.90;1.80;;;;;;;17.84;54.52;101510.61;106799;1271;72507;-84
2022/05/15 08:27:47;;;;;;;8.10;2.50;;;;;;;17.98;54.08;101502.27;106560;1271;62911;-84
2022/05/15 08:30:17;;;;;;;7.70;2.10;;;;;;;18.09;53.44;101496.79;106576;1271;60822;-85
2022/05/15 08:32:45;;;;;;;8.60;2.20;;;;;;;18.19;52.00;101497.70;106767;1271;74520;-85
2022/05/15 08:35:15;;;;;;;7.90;2.20;;;;;;;18.26;52.25;101500.91;106776;1271;71477;-86
2022/05/15 08:37:45;;;;;;;7.30;2.00;;;;;;;18.35;51.86;101498.65;106691;1271;72872;-86
2022/05/15 08:40:15;;;;;;;8.30;2.60;;;;;;;18.40;51.71;101503.20;106467;1274;60600;-86
2022/05/15 08:42:54;;;;;;;10.10;2.80;;;;;;;18.49;51.20;101506.34;106655;1274;60522;-86
2022/05/15 08:45:32;;;;;;;5.70;2.00;;;;;;;18.60;51.64;101501.23;106966;1274;75148;-85
2022/05/15 08:48:08;;;;;;;8.80;2.80;;;;;;;18.72;51.45;101505.29;108166;1274;71993;-85
2022/05/15 08:50:45;;;;;;;8.50;2.50;;;;;;;18.82;51.39;101505.17;108284;1271;73035;-85
2022/05/15 08:53:27;;;;;;;8.90;2.50;;;;;;;18.89;50.84;101502.30;107974;1273;60522;-86
2022/05/15 08:56:08;;;;;;;6.00;1.70;;;;;;;18.94;50.53;101502.13;106492;1273;60657;-85
2022/05/15 09:07:07;;;;;;;8.30;2.00;;;;;;;19.21;48.86;101502.13;106430;1274;61250;-87
2022/05/15 09:09:57;;;;;;;8.80;2.20;;;;;;;19.30;48.67;101500.48;106600;1274;61627;-85
2022/05/15 09:12:26;;;;;;;7.30;2.50;;;;;;;19.43;48.72;101496.27;107028;1276;73154;-86
2022/05/15 09:14:59;;;;;;;6.70;2.50;;;;;;;19.55;48.27;101499.77;106923;1274;73266;-86
2022/05/15 09:17:47;;;;;;;10.00;2.70;;;;;;;19.66;47.83;101496.50;107387;1277;73170;-87
2022/05/15 09:20:26;;;;;;;10.70;2.20;;;;;;;19.80;47.67;101495.25;106952;1274;61142;-87
2022/05/15 09:23:26;;;;;;;10.60;2.60;;;;;;;19.87;46.32;101493.16;106570;1274;60208;-86
2022/05/15 09:25:58;;;;;;;8.10;2.50;;;;;;;19.95;46.74;101488.19;106467;1274;74538;-85
2022/05/15 09:28:28;;;;;;;10.30;2.50;;;;;;;20.05;46.10;101489.27;106962;1274;71578;-86
2022/05/15 09:31:19;;;;;;;11.90;2.50;;;;;;;20.06;45.40;101488.98;108194;1276;73575;-86
2022/05/15 09:34:11;;;;;;;9.70;2.70;;;;;;;20.08;44.75;101484.75;108091;1274;60657;-86
2022/05/15 09:38:26;;;;;;;8.00;2.50;;;;;;;20.13;45.21;101487.51;107930;1274;60386;-86
2022/05/15 09:39:52;;;;;;;6.90;2.30;;;;;;;20.27;45.47;101485.52;107968;1274;74144;-85
2022/05/15 09:45:22;;;;;;;7.80;2.50;;;;;;;20.49;45.76;101483.86;106790;1274;72621;-86
2022/05/15 09:47:52;;;;;;;7.00;2.20;;;;;;;20.68;45.29;101488.34;106484;1275;61327;-86
2022/05/15 09:50:41;;;;;;;10.70;2.80;;;;;;;20.73;45.14;101484.64;106422;1276;60920;-87
2022/05/15 09:53:17;;;;;;;11.30;2.50;;;;;;;20.85;44.89;101486.80;106394;1274;73862;-87
2022/05/15 09:55:58;;;;;;;7.90;2.60;;;;;;;20.92;43.88;101486.84;106303;1277;71254;-87
2022/05/15 09:58:25;;;;;;;9.70;2.60;;;;;;;20.94;43.12;101486.11;106404;1277;73341;-87
2022/05/15 10:01:31;;;;;;;10.40;2.90;;;;;;;20.97;43.23;101478.70;107397;1276;61071;-86
2022/05/15 10:04:21;;;;;;;10.30;2.40;;;;;;;21.04;42.92;101478.37;108151;1274;60332;-86
2022/05/15 10:06:54;;;;;;;6.50;2.00;;;;;;;21.15;43.38;101477.28;108036;1274;74799;-86
2022/05/15 10:09:32;;;;;;;10.30;2.80;;;;;;;21.23;42.40;101473.91;106395;1274;71222;-86
2022/05/15 10:12:47;;;;;;;9.40;2.30;;;;;;;21.27;41.83;101469.67;106421;1265;73942;-86
2022/05/15 10:15:15;;;;;;;6.60;1.90;;;;;;;21.41;41.85;101472.81;106573;1273;63378;-86
2022/05/15 10:17:50;;;;;;;10.30;2.50;;;;;;;21.46;40.15;101470.98;106602;1273;60575;-86
2022/05/15 10:20:25;;;;;;;12.10;3.00;;;;;;;21.48;39.71;101473.19;106511;1273;75496;-86
2022/05/15 10:23:17;;;;;;;10.90;2.40;;;;;;;21.42;40.30;101475.61;106460;1274;71126;-86
2022/05/15 10:25:49;;;;;;;6.30;2.40;;;;;;;21.28;40.06;101471.64;106390;1273;74292;-87
2022/05/15 10:28:32;;;;;;;6.90;2.40;;;;;;;21.21;40.53;101463.84;106427;1273;61116;-86
2022/05/15 10:31:23;;;;;;;9.00;2.30;;;;;;;21.30;41.29;101462.79;106304;1273;60569;-86
2022/05/15 10:34:02;;;;;;;7.10;2.40;;;;;;;21.40;40.09;101461.86;106137;1274;75426;-86
2022/05/15 10:37:11;;;;;;;12.40;2.40;;;;;;;21.43;39.04;101458.20;106168;1273;71514;-86
2022/05/15 10:40:22;;;;;;;4.70;2.30;;;;;;;21.42;37.58;101453.95;105927;1274;73102;-86
2022/05/15 10:43:30;;;;;;;11.40;2.70;;;;;;;21.54;38.39;101453.64;106069;1273;60647;-86
2022/05/15 10:46:34;;;;;;;8.20;2.50;;;;;;;21.55;37.91;101450.38;106418;1274;60510;-86
2022/05/15 10:49:19;;;;;;;7.50;2.00;;;;;;;21.53;39.21;101443.68;105978;1275;73249;-86
2022/05/15 10:52:02;;;;;;;7.40;2.10;;;;;;;21.70;40.14;101447.30;106375;1274;72432;-87
2022/05/15 10:57:58;;;;;;;4.80;1.70;;;;;;;21.77;39.25;101434.69;106351;1274;60619;-85
2022/05/15 11:00:42;;;;;;;8.20;1.70;;;;;;;21.87;39.52;101433.54;106430;1274;60398;-85
2022/05/15 11:03:17;;;;;;;9.90;2.40;;;;;;;22.02;38.41;101435.83;106402;1274;74075;-87
2022/05/15 11:06:18;;;;;;;7.90;2.60;;;;;;;22.04;37.79;101435.08;106311;1275;71379;-86
2022/05/15 11:08:54;;;;;;;4.70;1.60;;;;;;;22.11;38.45;101427.45;106102;1276;74036;-86
2022/05/15 11:12:08;;;;;;;5.30;1.80;;;;;;;22.23;36.94;101426.89;106481;1274;61811;-86
2022/05/15 11:15:21;;;;;;;9.60;2.00;;;;;;;22.46;37.24;101420.66;106094;1277;60572;-86
2022/05/15 11:18:13;;;;;;;7.50;2.20;;;;;;;22.65;38.37;101418.21;106616;1277;72858;-86
2022/05/15 11:20:53;;;;;;;8.50;2.30;;;;;;;22.77;38.01;101411.06;107033;1276;71385;-86
2022/05/15 11:24:02;;;;;;;8.00;2.50;;;;;;;22.83;37.29;101410.81;107596;1277;73083;-86
2022/05/15 11:26:51;;;;;;;7.10;1.70;;;;;;;22.94;36.75;101408.52;106511;1276;60107;-86
2022/05/15 11:29:22;;;;;;;6.70;1.90;;;;;;;23.03;36.00;101404.73;106676;1277;60405;-86
2022/05/15 11:31:56;;;;;;;9.80;2.00;;;;;;;23.11;37.96;101399.74;106594;1277;74071;-86
2022/05/15 11:35:17;;;;;;;7.50;1.90;;;;;;;23.29;37.76;101400.09;106659;1278;71320;-86
2022/05/15 11:37:57;;;;;;;14.00;2.50;;;;;;;23.41;36.64;101398.41;106166;1276;72143;-87
2022/05/15 11:40:36;;;;;;;5.70;1.80;;;;;;;23.49;37.04;101401.42;106506;1263;60447;-86
2022/05/15 11:43:31;;;;;;;8.20;2.00;;;;;;;23.58;35.43;101399.85;106281;1273;62121;-87
2022/05/15 11:46:10;;;;;;;6.20;1.90;;;;;;;23.60;35.41;101393.27;106210;1273;74033;-86
2022/05/15 11:48:43;;;;;;;5.00;1.80;;;;;;;23.72;35.48;101388.50;106372;1274;71610;-85
2022/05/15 11:51:12;;;;;;;7.30;2.10;;;;;;;23.86;35.12;101387.76;106539;1273;72912;-86
2022/05/15 11:54:02;;;;;;;7.60;2.20;;;;;;;24.01;35.30;101384.69;106502;1273;61630;-86
2022/05/15 11:56:41;;;;;;;8.10;1.70;;;;;;;24.09;34.36;101380.24;106639;1273;61556;-86
2022/05/15 11:59:14;;;;;;;5.60;1.90;;;;;;;24.30;36.09;101381.59;106455;1273;73852;-86
2022/05/15 12:01:47;;;;;;;9.90;1.60;;;;;;;24.70;34.75;101385.29;106486;1273;74309;-86
2022/05/15 12:04:17;;;;;;;7.90;1.90;;;;;;;25.06;33.64;101382.00;107227;1273;72888;-86
2022/05/15 12:07:08;;;;;;;7.80;2.10;;;;;;;25.31;32.03;101378.64;106323;1274;60653;-86
2022/05/15 12:09:51;;;;;;;6.40;1.50;;;;;;;25.52;31.39;101372.73;106469;1273;60348;-86
2022/05/15 12:12:46;;;;;;;8.60;2.10;;;;;;;25.77;30.73;101366.58;106512;1273;74214;-86
2022/05/15 12:15:14;;;;;;;11.40;2.60;;;;;;;26.21;31.78;101366.35;106329;1273;71380;-87
2022/05/15 12:17:56;;;;;;;7.90;1.70;;;;;;;26.77;30.95;101365.54;106389;1273;73270;-86
2022/05/15 12:25:33;;;;;;;5.50;1.60;;;;;;;28.08;28.04;101354.55;106995;1271;72781;-86
2022/05/15 12:30:49;;;;;;;6.50;1.90;;;;;;;28.64;27.25;101349.66;106604;1274;74099;-86
2022/05/15 12:33:24;;;;;;;7.20;1.70;;;;;;;29.00;27.13;101349.90;106646;1274;60547;-87
2022/05/15 12:35:55;;;;;;;6.70;1.70;;;;;;;29.18;25.75;101346.80;106582;1274;61012;-87
2022/05/15 12:38:26;;;;;;;6.10;1.50;;;;;;;29.33;26.63;101345.77;106498;1274;76744;-87
2022/05/15 12:41:10;;;;;;;5.80;1.50;;;;;;;29.61;25.68;101344.60;106483;1273;72414;-87
2022/05/15 12:43:49;;;;;;;6.20;2.30;;;;;;;30.03;25.50;101335.66;106516;1273;72105;-87
2022/05/15 12:46:29;;;;;;;5.90;1.90;;;;;;;30.51;25.28;101332.06;107391;1273;60663;-86
2022/05/15 12:49:00;;;;;;;5.10;1.50;;;;;;;30.80;24.73;101325.36;107429;1273;60865;-87
2022/05/15 12:51:41;;;;;;;5.30;1.70;;;;;;;31.91;24.32;101325.88;107772;1264;74131;-86
2022/05/15 12:54:29;;;;;;;6.50;2.30;;;;;;;33.32;22.78;101327.45;108508;1273;70525;-87
2022/05/15 12:57:05;;;;;;;7.00;2.10;;;;;;;34.75;20.92;101317.15;108466;1265;71724;-87
2022/05/15 12:59:44;;;;;;;6.70;1.60;;;;;;;35.93;19.36;101309.91;108131;1274;63273;-87
2022/05/15 13:02:25;;;;;;;5.00;1.70;;;;;;;36.84;18.34;101309.80;108186;1274;59384;-87
2022/05/15 13:04:59;;;;;;;7.50;2.00;;;;;;;37.43;17.73;101311.12;108292;1274;75752;-87
2022/05/15 13:07:28;;;;;;;5.70;1.70;;;;;;;37.61;17.23;101313.55;108345;1274;72274;-87
2022/05/15 13:10:08;;;;;;;4.00;1.30;;;;;;;37.96;17.01;101314.79;108330;1274;72747;-86
2022/05/15 13:12:53;;;;;;;6.20;1.70;;;;;;;38.22;16.27;101313.04;108236;1273;59299;-87
2022/05/15 13:15:44;;;;;;;4.50;1.50;;;;;;;38.66;16.85;101306.52;108308;1274;60797;-87
2022/05/15 13:18:11;;;;;;;6.70;1.80;;;;;;;38.88;16.04;101298.10;108048;1277;74121;-87
2022/05/15 13:20:59;;;;;;;4.40;1.60;;;;;;;39.22;15.61;101295.88;108170;1277;71402;-87
2022/05/15 13:23:55;;;;;;;7.10;1.70;;;;;;;39.30;15.81;101286.55;107891;1279;73944;-87
2022/05/15 13:26:38;;;;;;;4.50;1.60;;;;;;;39.31;15.09;101285.73;107614;1281;60000;-87
2022/05/15 13:29:30;;;;;;;5.80;2.00;;;;;;;39.38;15.76;101279.95;107599;1281;61210;-87
2022/05/15 13:32:07;;;;;;;7.70;1.70;;;;;;;39.35;15.91;101278.77;107299;1285;74144;-87
2022/05/15 13:34:37;;;;;;;6.90;1.90;;;;;;;39.45;15.63;101278.48;107069;1285;71525;-87
2022/05/15 13:37:23;;;;;;;4.90;1.70;;;;;;;39.81;15.68;101275.55;107216;1285;74604;-87
2022/05/15 13:45:30;;;;;;;5.50;1.60;;;;;;;39.89;14.80;101277.11;107092;1286;74565;-86
2022/05/15 13:48:12;;;;;;;4.30;1.60;;;;;;;40.17;15.08;101275.60;107251;1285;72411;-87
2022/05/15 13:50:44;;;;;;;5.30;2.20;;;;;;;40.42;14.30;101278.94;107453;1282;74946;-87
2022/05/15 13:53:26;;;;;;;5.80;1.90;;;;;;;40.63;14.46;101283.17;107826;1264;60506;-88
2022/05/15 13:56:21;;;;;;;5.30;1.70;;;;;;;40.99;14.23;101281.58;108410;1274;61163;-87
2022/05/15 13:58:57;;;;;;;7.10;1.60;;;;;;;40.61;13.95;101284.48;108548;1273;74491;-87
2022/05/15 14:01:34;;;;;;;4.80;2.10;;;;;;;40.51;14.09;101283.82;108379;1276;72349;-87